FW2785 Alexandria VA US current weather conditions

sailwx.info

Wind from 244 at 1 knots gusting 3

Air temperature 8.3° C
Dewpoint 7.9° C

Last reported at 2020-Jan-25 14:01 UTC.
Time now 2020-Jan-25 14:29 UTC

Location: N 38°46' W 077°08'.
View on Google Maps.

See reports from other nearby stations

  
Tides and Currents Weather Stations Pressure Air Temp Water Temp Dewpoint Dewpoint Depression Visibility Wind Speed Wind Dir Waves Ship Positions
date/time (UTC)wind fromknots sea level pressurealtimeterstation pressurevisibilityair tempwater tempwave heightnotes
2020-Jan-25 14:01 244 1 gusting 3 8.3
2020-Jan-25 13:51 236 1 gusting 4 8.3
2020-Jan-25 13:41 240 0 gusting 3 8.3
2020-Jan-25 13:31 230 1 gusting 3 7.8
2020-Jan-25 13:21 320 2 gusting 4 7.8
2020-Jan-25 13:11 052 2 gusting 6 7.8
2020-Jan-25 13:01 238 1 gusting 5 7.8
2020-Jan-25 12:51 071 3 gusting 6 7.8
2020-Jan-25 12:41 049 4 gusting 7 7.8
2020-Jan-25 12:31 033 4 gusting 9 7.8
2020-Jan-25 12:21 055 4 gusting 6 7.8
2020-Jan-25 12:11 040 3 gusting 7 7.8
2020-Jan-25 12:01 039 4 gusting 8 7.8
2020-Jan-25 11:51 058 3 gusting 6 7.8
2020-Jan-25 11:41 065 2 gusting 5 8.3
2020-Jan-25 11:31 042 3 gusting 7 8.3
2020-Jan-25 11:21 039 6 gusting 11 8.3
2020-Jan-25 11:11 041 7 gusting 11 8.3
2020-Jan-25 11:01 054 6 gusting 10 8.3
2020-Jan-25 10:51 038 4 gusting 7 8.3
2020-Jan-25 10:41 048 2 gusting 6 8.3
2020-Jan-25 10:31 008 3 gusting 5 8.3
2020-Jan-25 10:21 049 4 gusting 8 8.9
2020-Jan-25 10:11 322 3 gusting 6 8.9
2020-Jan-25 10:01 261 3 gusting 6 8.9
2020-Jan-25 09:51 269 3 gusting 6 8.9
2020-Jan-25 09:41 289 2 gusting 6 9.4
2020-Jan-25 09:31 304 3 gusting 7 9.4
2020-Jan-25 09:21 246 3 gusting 7 8.9
2020-Jan-25 09:11 105 2 gusting 4 8.9
2020-Jan-25 09:01 152 2 gusting 6 8.9
2020-Jan-25 08:51 203 2 gusting 4 8.9
2020-Jan-25 08:41 153 2 gusting 6 8.9
2020-Jan-25 08:31 188 2 gusting 6 8.9
2020-Jan-25 08:21 225 3 gusting 6 8.9
2020-Jan-25 08:11 214 3 gusting 7 8.9
2020-Jan-25 08:01 055 2 gusting 6 8.9
2020-Jan-25 07:51 223 0 gusting 3 8.9
2020-Jan-25 07:41 210 0 gusting 3 8.9
2020-Jan-25 07:31 224 2 gusting 6 8.9
2020-Jan-25 07:21 347 2 gusting 4 8.9
2020-Jan-25 07:11 294 2 gusting 6 8.9
2020-Jan-25 07:01 235 3 gusting 6 8.9
2020-Jan-25 06:51 229 2 gusting 6 8.3
2020-Jan-25 06:41 230 2 gusting 4 8.3
2020-Jan-25 06:31 251 1 gusting 4 8.3
2020-Jan-25 06:21 211 1 gusting 6 8.3
2020-Jan-25 06:11 286 3 gusting 6 8.3
2020-Jan-25 06:01 132 2 gusting 6 8.3
2020-Jan-25 05:51 285 3 gusting 5 8.3
2020-Jan-25 05:41 136 2 gusting 6 8.3
2020-Jan-25 05:31 066 3 gusting 6 8.9
2020-Jan-25 05:21 168 3 gusting 8 8.9
2020-Jan-25 05:11 244 3 gusting 6 8.9
2020-Jan-25 05:01 177 2 gusting 6 8.9
2020-Jan-25 04:51 234 2 gusting 6 8.9
2020-Jan-25 04:41 016 3 gusting 6 8.9
2020-Jan-25 04:31 221 2 gusting 6 8.9
2020-Jan-25 04:21 326 2 gusting 4 8.9
2020-Jan-25 04:11 183 2 gusting 4 8.9
2020-Jan-25 04:01 249 2 gusting 5 8.9
2020-Jan-25 03:51 244 2 gusting 4 8.9
2020-Jan-25 03:41 252 3 gusting 6 8.9
2020-Jan-25 03:31 238 1 gusting 2 8.9
2020-Jan-25 03:21 177 1 gusting 4 8.9
2020-Jan-25 03:11 304 2 gusting 6 8.9
2020-Jan-25 03:01 211 2 gusting 5 8.9
2020-Jan-25 02:51 245 3 gusting 6 9.4
2020-Jan-25 02:41 114 3 gusting 7 9.4
2020-Jan-25 02:31 241 3 gusting 6 9.4
2020-Jan-25 02:21 235 2 gusting 4 9.4
2020-Jan-25 02:11 222 2 gusting 4 9.4
2020-Jan-25 02:01 168 2 gusting 4 9.4
2020-Jan-25 01:51 233 2 gusting 5 9.4
2020-Jan-25 01:41 178 2 gusting 5 10.0
2020-Jan-25 01:31 215 2 gusting 5 10.0
2020-Jan-25 01:21 045 2 gusting 4 10.0
2020-Jan-25 01:11 315 2 gusting 3 10.0
2020-Jan-25 01:01 260 2 gusting 4 10.0
2020-Jan-25 00:51 036 2 gusting 6 10.0
2020-Jan-25 00:41 296 2 gusting 6 10.0
2020-Jan-25 00:31 211 2 gusting 5 10.6
2020-Jan-25 00:21 025 3 gusting 5 10.6
2020-Jan-25 00:11 227 3 gusting 7 10.6
2020-Jan-25 00:01 165 2 gusting 5 10.6
2020-Jan-24 23:51 294 2 gusting 6 10.6
2020-Jan-24 23:41 327 2 gusting 5 10.6
2020-Jan-24 23:31 162 1 gusting 5 10.6
2020-Jan-24 23:21 263 2 gusting 4 10.6
2020-Jan-24 23:11 006 2 gusting 4 10.6
2020-Jan-24 23:01 052 0 gusting 4 10.0
2020-Jan-24 22:51 264 0 gusting 2 10.0
2020-Jan-24 22:41 040 1 gusting 3 10.6
2020-Jan-24 22:31 072 1 gusting 3 10.6
2020-Jan-24 22:21 324 0 gusting 4 10.6
2020-Jan-24 22:11 221 0 gusting 2 10.6
2020-Jan-24 22:01 258 0 gusting 3 10.6
2020-Jan-24 21:51 321 1 gusting 3 10.6
2020-Jan-24 21:41 045 1 gusting 4 10.6
2020-Jan-24 21:31 005 1 gusting 4 10.6
2020-Jan-24 21:21 043 2 gusting 6 10.6
2020-Jan-24 21:11 062 3 gusting 7 11.1
2020-Jan-24 21:01 019 2 gusting 5 11.1
2020-Jan-24 20:51 030 2 gusting 5 11.1
2020-Jan-24 20:41 072 1 gusting 2 11.1
2020-Jan-24 20:31 069 2 gusting 4 11.1
2020-Jan-24 20:21 324 1 gusting 3 11.1
2020-Jan-24 20:11 356 2 gusting 6 11.1
2020-Jan-24 20:01 157 1 gusting 3 11.1
2020-Jan-24 19:51 110 1 gusting 2 11.1
2020-Jan-24 19:41 263 1 gusting 3 11.1
2020-Jan-24 19:31 219 1 gusting 4 11.1
2020-Jan-24 19:21 166 1 gusting 3 11.1
2020-Jan-24 19:11 068 1 gusting 3 11.1
2020-Jan-24 19:01 075 2 gusting 5 11.1
2020-Jan-24 18:51 308 2 gusting 3 11.1
2020-Jan-24 18:41 358 2 gusting 6 11.7
2020-Jan-24 18:31 002 2 gusting 5 10.6
2020-Jan-24 18:21 108 1 gusting 5 10.6
2020-Jan-24 18:11 076 2 gusting 5 10.6
2020-Jan-24 18:01 041 3 gusting 6 11.1
2020-Jan-24 17:51 094 2 gusting 5 11.1
2020-Jan-24 17:41 315 1 gusting 5 10.0
2020-Jan-24 17:31 010 2 gusting 6 10.0
2020-Jan-24 17:21 230 2 gusting 6 9.4
2020-Jan-24 17:11 047 3 gusting 5 10.0
2020-Jan-24 17:01 048 2 gusting 6 9.4
2020-Jan-24 16:51 065 1 gusting 3 8.9
2020-Jan-24 16:41 011 2 gusting 4 8.3
2020-Jan-24 16:31 065 2 gusting 4 8.9
2020-Jan-24 16:21 021 2 gusting 6 8.3
2020-Jan-24 16:11 050 1 gusting 3 7.8
2020-Jan-24 16:01 050 2 gusting 4 7.2
2020-Jan-24 15:51 024 1 gusting 3 7.2
2020-Jan-24 15:41 345 1 gusting 3 6.7
2020-Jan-24 15:31 018 1 gusting 5 6.7
2020-Jan-24 15:21 045 1 gusting 5 6.1
2020-Jan-24 15:11 018 2 gusting 5 6.1
2020-Jan-24 15:01 040 0 gusting 2 5.6
2020-Jan-24 14:51 092 0 gusting 2 5.0
2020-Jan-24 14:41 051 1 gusting 3 5.0
2020-Jan-24 14:31 049 1 gusting 4 4.4
2020-Jan-24 14:21 043 1 gusting 5 4.4
2020-Jan-24 14:11 087 0 gusting 2 3.9
2020-Jan-24 14:01 053 0 gusting 2 3.9
2020-Jan-24 13:51 049 0 gusting 3 3.3
2020-Jan-24 13:41 099 0 gusting 2 2.8
2020-Jan-24 13:31 056 1 gusting 3 2.8
2020-Jan-24 13:21 058 1 gusting 4 2.2
2020-Jan-24 13:11 053 1 gusting 3 2.2
2020-Jan-24 13:01 042 1 gusting 5 1.7
2020-Jan-24 12:51 054 0 gusting 3 1.7
2020-Jan-24 12:41 046 1 gusting 4 1.7
2020-Jan-24 12:31 054 0 gusting 2 1.7
2020-Jan-24 12:21 049 1 gusting 4 1.7
2020-Jan-24 12:11 025 1 gusting 2 2.2
2020-Jan-24 12:01 102 2.2
2020-Jan-24 11:51 046 1 gusting 3 2.2
2020-Jan-24 11:41 026 0 gusting 2 2.2
2020-Jan-24 11:31 048 0 gusting 3 2.2
2020-Jan-24 11:21 060 2.2
2020-Jan-24 11:11 045 1.7
2020-Jan-24 11:01 019 1.7
2020-Jan-24 10:51 048 1 gusting 2 1.7
2020-Jan-24 10:41 046 0 gusting 4 1.7
2020-Jan-24 10:31 240 0 gusting 2 1.7
2020-Jan-24 10:21 051 1 gusting 5 1.7
2020-Jan-24 10:11 043 1 gusting 4 1.7
2020-Jan-24 10:01 135 1.1
2020-Jan-24 09:51 022 1.1
2020-Jan-24 09:41 043 0 gusting 3 1.1
2020-Jan-24 09:31 023 1.1
2020-Jan-24 09:21 180 1.1
2020-Jan-24 09:11 225 1.1
2020-Jan-24 09:01 068 1.1
2020-Jan-24 08:51 054 1.1
2020-Jan-24 08:41 173 1.7
2020-Jan-24 08:31 012 0 gusting 2 1.7
2020-Jan-24 08:21 051 0 gusting 2 1.7
2020-Jan-24 08:11 049 1 gusting 3 1.7
2020-Jan-24 08:01 056 0 gusting 2 1.7
2020-Jan-24 07:51 031 1.7
2020-Jan-24 07:41 046 0 gusting 2 1.7
2020-Jan-24 07:31 123 1.7
2020-Jan-24 07:21 068 0 gusting 2 1.7
2020-Jan-24 07:11 090 1.7
2020-Jan-24 07:01 079 1.7
2020-Jan-24 06:51 047 1.7
2020-Jan-24 06:41 113 1.7
2020-Jan-24 06:31 158 1.1
2020-Jan-24 06:21 113 1.1
2020-Jan-24 06:11 293 0.6
2020-Jan-24 06:01 293 0.6
2020-Jan-24 05:51 270 0.6
2020-Jan-24 05:41 225 0.6
2020-Jan-24 05:31 113 0.6
2020-Jan-24 05:21 203 0.6
2020-Jan-24 05:11 203 0.6
2020-Jan-24 05:01 225 0.6
2020-Jan-24 04:51 158 0.6
2020-Jan-24 04:41 270 -0.0
2020-Jan-24 04:31 310 -0.0
2020-Jan-24 04:21 003 0 gusting 1 -0.0
2020-Jan-24 04:11 225 -0.0
2020-Jan-24 04:01 068 0.6
2020-Jan-24 03:51 113 0.6
2020-Jan-24 03:41 135 1.1
2020-Jan-24 03:31 070 1.7
2020-Jan-24 03:21 055 0 gusting 2 1.7
2020-Jan-24 03:11 225 1.1
2020-Jan-24 03:01 180 1.7
2020-Jan-24 02:51 045 1.7
2020-Jan-24 02:41 068 1.7
2020-Jan-24 02:31 068 1.7
2020-Jan-24 02:21 023 1.7
2020-Jan-24 02:11 225 1.7
2020-Jan-24 02:01 180 1.7
2020-Jan-24 01:51 180 1.7
2020-Jan-24 01:41 135 1.7
2020-Jan-24 01:31 090 1.7
2020-Jan-24 01:21 068 1.7
2020-Jan-24 01:11 068 1.7
2020-Jan-24 01:01 180 1.7
2020-Jan-24 00:51 068 1.7
2020-Jan-24 00:41 158 2.2
2020-Jan-24 00:31 135 2.2
2020-Jan-24 00:21 180 2.2
2020-Jan-24 00:11 090 2.2
2020-Jan-24 00:01 113 2.8
2020-Jan-23 23:51 180 2.8
2020-Jan-23 23:41 113 2.8
2020-Jan-23 23:31 090 2.8
2020-Jan-23 23:21 180 3.3
2020-Jan-23 23:11 158 3.3
2020-Jan-23 23:01 315 3.3
2020-Jan-23 22:51 203 3.9
2020-Jan-23 22:41 045 3.9
2020-Jan-23 22:31 090 3.9
2020-Jan-23 22:21 180 4.4
2020-Jan-23 22:11 248 5.0
2020-Jan-23 22:01 225 5.0
2020-Jan-23 21:51 113 5.6
2020-Jan-23 21:41 068 6.1
2020-Jan-23 21:31 211 6.1
2020-Jan-23 21:21 205 6.7
2020-Jan-23 21:11 194 6.7
2020-Jan-23 21:01 189 0 gusting 2 6.1
2020-Jan-23 20:51 214 0 gusting 2 6.1
2020-Jan-23 20:41 185 0 gusting 3 6.7
2020-Jan-23 20:31 217 0 gusting 2 6.1
2020-Jan-23 20:21 199 0 gusting 2 6.7
2020-Jan-23 20:11 225 0 gusting 2 6.7
2020-Jan-23 20:01 215 0 gusting 3 6.1
2020-Jan-23 19:51 218 6.1
2020-Jan-23 19:41 194 6.1
2020-Jan-23 19:31 227 0 gusting 2 6.1
2020-Jan-23 19:21 233 1 gusting 3 6.1
2020-Jan-23 19:11 231 0 gusting 2 6.1
2020-Jan-23 19:01 232 0 gusting 3 5.6
2020-Jan-23 18:51 211 5.6
2020-Jan-23 18:41 166 5.6
2020-Jan-23 18:31 225 0 gusting 2 5.6
2020-Jan-23 18:21 205 0 gusting 2 5.6
2020-Jan-23 18:11 212 0 gusting 2 5.6
2020-Jan-23 18:01 226 0 gusting 3 5.6
2020-Jan-23 17:51 206 0 gusting 2 5.6
2020-Jan-23 17:41 180 0 gusting 1 5.0
2020-Jan-23 17:31 049 0 gusting 3 5.0
2020-Jan-23 17:21 195 5.0
2020-Jan-23 17:11 237 0 gusting 1 5.0
2020-Jan-23 17:01 204 0 gusting 1 5.6
2020-Jan-23 16:51 217 0 gusting 2 5.6
2020-Jan-23 16:41 197 0 gusting 2 5.0
2020-Jan-23 16:31 232 0 gusting 2 5.0
2020-Jan-23 16:21 213 0 gusting 2 4.4
2020-Jan-23 16:11 169 4.4
2020-Jan-23 16:01 205 3.9
2020-Jan-23 15:51 028 3.9
2020-Jan-23 15:41 034 0 gusting 3 3.3
2020-Jan-23 15:31 223 0 gusting 2 2.8
2020-Jan-23 15:21 246 1 gusting 2 2.2
2020-Jan-23 15:11 225 0 gusting 2 1.7
2020-Jan-23 15:01 225 1.7
2020-Jan-23 14:51 158 0.6
2020-Jan-23 14:41 158 -0.0
2020-Jan-23 14:31 158 -0.6
2020-Jan-23 14:21 180 -1.1
2020-Jan-23 14:11 158 -1.7
2020-Jan-23 14:01 113 -2.2